createdAt,value
2017-08-28T00:00:37.955Z,1.20
2017-08-28T00:03:05.562Z,1.10
2017-08-28T00:05:33.124Z,1.70
2017-08-28T00:08:00.793Z,1.50
2017-08-28T00:10:28.400Z,1.43
2017-08-28T00:12:55.923Z,1.30
2017-08-28T00:15:23.431Z,1.53
2017-08-28T00:17:50.974Z,1.30
2017-08-28T00:20:18.467Z,1.40
2017-08-28T00:22:45.973Z,1.10
2017-08-28T00:25:13.506Z,1.43
2017-08-28T00:27:41.022Z,1.47
2017-08-28T00:30:08.539Z,1.10
2017-08-28T00:32:36.074Z,1.40
2017-08-28T00:35:03.591Z,1.10
2017-08-28T00:37:31.141Z,1.63
2017-08-28T00:39:58.664Z,1.20
2017-08-28T00:42:26.357Z,1.57
2017-08-28T00:44:53.872Z,1.27
2017-08-28T00:47:21.412Z,1.10
2017-08-28T00:49:48.941Z,1.10
2017-08-28T00:52:16.446Z,1.20
2017-08-28T00:54:43.963Z,1.00
2017-08-28T00:57:11.530Z,1.13
2017-08-28T00:59:39.129Z,1.20
2017-08-28T01:02:06.745Z,1.20
2017-08-28T01:04:34.282Z,1.20
2017-08-28T01:07:01.792Z,1.20
2017-08-28T01:09:29.272Z,1.10
2017-08-28T01:11:56.801Z,1.20
2017-08-28T01:14:24.306Z,1.20
2017-08-28T01:16:51.916Z,1.30
2017-08-28T01:19:19.373Z,1.30
2017-08-28T01:21:46.885Z,1.30
2017-08-28T01:24:14.398Z,1.53
2017-08-28T01:26:41.908Z,1.40
2017-08-28T01:29:09.437Z,1.30
2017-08-28T01:31:37.318Z,1.00
2017-08-28T01:34:04.866Z,1.10
2017-08-28T01:36:32.346Z,1.17
2017-08-28T01:38:59.909Z,1.17
2017-08-28T01:41:27.592Z,1.10
2017-08-28T01:43:55.108Z,1.17
2017-08-28T01:46:22.619Z,1.00
2017-08-28T01:48:50.106Z,1.00
2017-08-28T01:51:17.640Z,1.30
2017-08-28T01:53:45.136Z,1.10
2017-08-28T01:56:12.642Z,1.10
2017-08-28T01:58:40.168Z,1.10
2017-08-28T02:01:07.661Z,1.13
2017-08-28T02:03:35.183Z,1.20
2017-08-28T02:06:02.677Z,1.10
2017-08-28T02:08:30.188Z,0.90
2017-08-28T02:10:57.712Z,1.00
2017-08-28T02:13:25.275Z,1.13
2017-08-28T02:15:52.858Z,1.10
2017-08-28T02:18:20.347Z,0.97
2017-08-28T02:20:47.857Z,0.90
2017-08-28T02:23:15.386Z,0.93
2017-08-28T02:25:42.894Z,1.03
2017-08-28T02:28:10.409Z,1.27
2017-08-28T02:30:37.926Z,1.00
2017-08-28T02:33:05.448Z,0.80
2017-08-28T02:35:33.714Z,1.20
2017-08-28T02:38:01.235Z,0.93
2017-08-28T02:40:28.827Z,1.00
2017-08-28T02:42:56.338Z,1.00
2017-08-28T02:45:23.866Z,0.97
2017-08-28T02:47:51.362Z,0.80
2017-08-28T02:50:18.881Z,1.10
2017-08-28T02:52:46.379Z,0.90
2017-08-28T02:55:13.914Z,1.10
2017-08-28T02:57:41.402Z,1.00
2017-08-28T03:00:08.908Z,1.13
2017-08-28T03:02:36.584Z,1.20
2017-08-28T03:05:04.113Z,1.27
2017-08-28T03:07:31.625Z,0.83
2017-08-28T03:09:59.129Z,0.93
2017-08-28T03:12:26.637Z,1.00
2017-08-28T03:14:54.137Z,1.20
2017-08-28T03:17:21.658Z,0.90
2017-08-28T03:19:49.167Z,0.90
2017-08-28T03:22:16.680Z,0.97
2017-08-28T03:24:44.313Z,0.97
2017-08-28T03:27:11.842Z,0.90
2017-08-28T03:29:39.354Z,1.00
2017-08-28T03:32:06.849Z,0.90
2017-08-28T03:34:34.382Z,0.90
2017-08-28T03:37:01.941Z,1.20
2017-08-28T03:39:29.448Z,1.20
2017-08-28T03:41:56.966Z,0.90
2017-08-28T03:44:24.481Z,0.97
2017-08-28T03:46:51.993Z,0.83
2017-08-28T03:49:19.492Z,1.00
2017-08-28T03:51:47.005Z,1.10
2017-08-28T03:54:14.535Z,1.10
2017-08-28T03:56:42.085Z,0.90
2017-08-28T03:59:09.598Z,1.10
2017-08-28T04:01:37.173Z,1.07
2017-08-28T04:04:04.702Z,1.20
2017-08-28T04:06:32.282Z,1.37
2017-08-28T04:08:59.800Z,0.93
2017-08-28T04:11:27.297Z,0.90
2017-08-28T04:13:54.823Z,0.90
2017-08-28T04:16:22.316Z,0.90
2017-08-28T04:18:49.833Z,1.03
2017-08-28T04:21:18.125Z,1.00
2017-08-28T04:23:45.666Z,1.13
2017-08-28T04:26:13.187Z,0.90
2017-08-28T04:28:40.730Z,0.87
2017-08-28T04:31:08.290Z,1.23
2017-08-28T04:33:35.850Z,1.07
2017-08-28T04:36:03.352Z,0.90
2017-08-28T04:38:30.879Z,1.00
2017-08-28T04:40:58.399Z,1.13
2017-08-28T04:43:25.918Z,1.20
2017-08-28T04:45:53.436Z,1.00
2017-08-28T04:48:20.931Z,0.90
2017-08-28T04:50:48.452Z,0.90
2017-08-28T04:53:15.961Z,1.10
2017-08-28T04:55:43.486Z,1.23
2017-08-28T04:58:10.992Z,0.80
2017-08-28T05:00:38.526Z,0.80
2017-08-28T05:03:06.055Z,1.00
2017-08-28T05:05:33.551Z,1.00
2017-08-28T05:08:01.078Z,0.87
2017-08-28T05:10:28.578Z,0.90
2017-08-28T05:12:56.082Z,0.97
2017-08-28T05:15:23.590Z,1.07
2017-08-28T05:17:51.126Z,1.00
2017-08-28T05:20:18.608Z,1.10
2017-08-28T05:22:46.121Z,1.10
2017-08-28T05:25:13.676Z,0.90
2017-08-28T05:27:41.186Z,0.90
2017-08-28T05:30:08.706Z,0.97
2017-08-28T05:32:36.233Z,1.00
2017-08-28T05:35:03.738Z,0.90
2017-08-28T05:37:31.256Z,1.00
2017-08-28T05:39:58.828Z,1.10
2017-08-28T05:42:26.469Z,1.23
2017-08-28T05:44:54.012Z,1.10
2017-08-28T05:47:21.708Z,0.90
2017-08-28T05:49:49.225Z,1.10
2017-08-28T05:52:16.775Z,1.00
2017-08-28T05:54:44.312Z,0.90
2017-08-28T05:57:11.811Z,0.90
2017-08-28T05:59:39.341Z,0.90
2017-08-28T06:02:06.842Z,1.10
2017-08-28T06:04:34.353Z,0.93
2017-08-28T06:07:01.887Z,1.13
2017-08-28T06:09:29.413Z,0.93
2017-08-28T06:11:56.915Z,1.50
2017-08-28T06:14:24.414Z,1.53
2017-08-28T06:16:51.953Z,1.60
2017-08-28T06:19:19.469Z,1.40
2017-08-28T06:21:47.967Z,1.43
2017-08-28T06:24:15.481Z,1.23
2017-08-28T06:26:43.109Z,1.30
2017-08-28T06:29:10.615Z,1.50
2017-08-28T06:31:38.137Z,1.33
2017-08-28T06:34:05.680Z,1.40
2017-08-28T06:36:33.197Z,1.20
2017-08-28T06:39:00.758Z,1.70
2017-08-28T06:41:28.393Z,1.30
2017-08-28T06:43:55.930Z,1.60
2017-08-28T06:46:23.435Z,1.27
2017-08-28T06:48:50.974Z,1.67
2017-08-28T06:51:18.494Z,1.50
2017-08-28T06:53:46.022Z,1.43
2017-08-28T06:56:13.547Z,1.50
2017-08-28T06:58:41.048Z,1.23
2017-08-28T07:01:08.570Z,1.30
2017-08-28T07:03:36.069Z,1.20
2017-08-28T07:06:03.596Z,1.10
2017-08-28T07:08:31.110Z,1.20
2017-08-28T07:10:58.781Z,1.50
2017-08-28T07:13:26.310Z,1.37
2017-08-28T07:15:53.820Z,1.57
2017-08-28T07:18:21.359Z,1.63
2017-08-28T07:20:48.854Z,1.10
2017-08-28T07:23:16.389Z,1.50
2017-08-28T07:25:44.655Z,1.20
2017-08-28T07:28:12.184Z,1.30
2017-08-28T07:30:39.674Z,1.00
2017-08-28T07:33:07.337Z,1.40
2017-08-28T07:35:34.883Z,1.03
2017-08-28T07:38:02.397Z,1.10
2017-08-28T07:40:29.895Z,1.37
2017-08-28T07:42:57.429Z,1.20
2017-08-28T07:45:24.940Z,1.10
2017-08-28T07:47:52.521Z,0.90
2017-08-28T07:50:20.137Z,1.10
2017-08-28T07:52:47.742Z,1.10
2017-08-28T07:55:15.303Z,1.00
2017-08-28T07:57:43.065Z,1.00
2017-08-28T08:00:10.603Z,1.00
2017-08-28T08:02:38.131Z,1.10
2017-08-28T08:05:05.645Z,1.00
2017-08-28T08:07:33.199Z,1.00
2017-08-28T08:10:00.706Z,1.00
2017-08-28T08:12:28.228Z,0.80
2017-08-28T08:14:55.750Z,1.07
2017-08-28T08:17:23.403Z,1.00
2017-08-28T08:19:50.886Z,0.80
2017-08-28T08:22:18.405Z,0.90
2017-08-28T08:24:45.965Z,0.90
2017-08-28T08:27:14.238Z,0.80
2017-08-28T08:29:41.754Z,1.10
2017-08-28T08:32:09.296Z,0.90
2017-08-28T08:34:36.800Z,0.97
2017-08-28T08:37:04.335Z,1.03
2017-08-28T08:39:31.870Z,1.10
2017-08-28T08:41:59.464Z,1.00
2017-08-28T08:44:27.011Z,1.10
2017-08-28T08:46:54.570Z,1.10
2017-08-28T08:49:22.103Z,1.00
2017-08-28T08:51:49.731Z,1.07
2017-08-28T08:54:17.250Z,0.80
2017-08-28T08:56:44.748Z,0.90
2017-08-28T08:59:12.264Z,1.20
2017-08-28T09:01:40.136Z,1.10
2017-08-28T09:04:07.674Z,0.83
2017-08-28T09:06:35.340Z,1.20
2017-08-28T09:09:02.878Z,1.00
2017-08-28T09:11:30.388Z,1.23
2017-08-28T09:13:58.035Z,1.03
2017-08-28T09:16:25.578Z,0.90
2017-08-28T09:18:53.098Z,1.00
2017-08-28T09:21:20.641Z,0.93
2017-08-28T09:23:48.207Z,1.00
2017-08-28T09:26:16.178Z,0.90
2017-08-28T09:28:43.734Z,1.10
2017-08-28T09:31:11.252Z,1.00
2017-08-28T09:33:38.912Z,1.00
2017-08-28T09:36:06.983Z,1.20
2017-08-28T09:38:34.879Z,1.20
2017-08-28T09:41:02.551Z,1.20
2017-08-28T09:43:30.174Z,1.20
2017-08-28T09:45:57.740Z,1.03
2017-08-28T09:48:25.260Z,1.20
2017-08-28T09:50:52.771Z,1.30
2017-08-28T09:53:20.346Z,1.27
2017-08-28T09:55:47.855Z,1.23
2017-08-28T09:58:15.370Z,0.97
2017-08-28T10:00:42.906Z,1.30
2017-08-28T10:03:10.405Z,1.13
2017-08-28T10:05:37.968Z,1.17
2017-08-28T10:08:05.469Z,1.20
2017-08-28T10:10:32.989Z,1.00
2017-08-28T10:13:00.535Z,1.20
2017-08-28T10:15:28.051Z,1.07
2017-08-28T10:17:55.614Z,1.07
2017-08-28T10:20:23.123Z,1.20
2017-08-28T10:22:50.857Z,1.10
2017-08-28T10:25:18.376Z,1.13
2017-08-28T10:27:46.256Z,1.10
2017-08-28T10:30:13.748Z,1.30
2017-08-28T10:32:41.249Z,1.43
2017-08-28T10:35:08.838Z,1.30
2017-08-28T10:37:36.370Z,1.40
2017-08-28T10:40:03.874Z,1.13
2017-08-28T10:42:31.389Z,1.23
2017-08-28T10:44:58.941Z,1.30
2017-08-28T10:47:26.455Z,1.30
2017-08-28T10:49:53.974Z,1.30
2017-08-28T10:52:21.478Z,1.30
2017-08-28T10:54:49.015Z,1.03
2017-08-28T10:57:16.553Z,1.40
2017-08-28T10:59:44.098Z,1.20
2017-08-28T11:02:11.609Z,1.60
2017-08-28T11:04:39.145Z,1.33
2017-08-28T11:07:06.735Z,1.30
2017-08-28T11:09:34.268Z,1.30
2017-08-28T11:12:01.769Z,1.33
2017-08-28T11:14:29.325Z,1.30
2017-08-28T11:16:56.977Z,1.33
2017-08-28T11:19:24.509Z,1.33
2017-08-28T11:21:52.796Z,1.30
2017-08-28T11:24:20.324Z,1.50
2017-08-28T11:26:47.843Z,1.50
2017-08-28T11:29:15.401Z,1.40
2017-08-28T11:31:42.902Z,1.20
2017-08-28T11:34:10.451Z,1.50
2017-08-28T11:36:37.976Z,1.50
2017-08-28T11:39:05.504Z,1.30
2017-08-28T11:41:33.075Z,1.30
2017-08-28T11:44:00.556Z,1.40
2017-08-28T11:46:28.067Z,1.60
2017-08-28T11:48:55.629Z,1.30
2017-08-28T11:51:23.150Z,1.70
2017-08-28T11:53:50.694Z,1.80
2017-08-28T11:56:18.236Z,2.10
2017-08-28T11:58:45.750Z,2.07
2017-08-28T12:01:13.350Z,2.00
2017-08-28T12:03:41.037Z,2.27
2017-08-28T12:06:08.549Z,2.03
2017-08-28T12:08:36.233Z,1.63
2017-08-28T12:11:03.721Z,1.80
2017-08-28T12:13:31.236Z,2.40
2017-08-28T12:15:58.772Z,1.73
2017-08-28T12:18:26.265Z,1.80
2017-08-28T12:20:53.774Z,1.97
2017-08-28T12:23:21.362Z,1.73
2017-08-28T12:25:48.866Z,1.50
2017-08-28T12:28:16.453Z,1.90
2017-08-28T12:30:43.957Z,1.90
2017-08-28T12:33:11.472Z,2.03
2017-08-28T12:35:38.977Z,1.77
2017-08-28T12:38:06.553Z,1.97
2017-08-28T12:40:34.065Z,1.70
2017-08-28T12:43:01.605Z,2.00
2017-08-28T12:45:29.122Z,2.30
2017-08-28T12:47:56.648Z,2.17
2017-08-28T12:50:24.205Z,2.23
2017-08-28T12:52:51.741Z,1.83
2017-08-28T12:55:19.482Z,1.87
2017-08-28T12:57:47.166Z,2.20
2017-08-28T13:00:14.700Z,1.77
2017-08-28T13:02:42.206Z,1.83
2017-08-28T13:05:09.773Z,1.90
2017-08-28T13:07:37.329Z,2.00
2017-08-28T13:10:04.857Z,2.03
2017-08-28T13:12:32.375Z,1.70
2017-08-28T13:14:59.926Z,2.10
2017-08-28T13:17:27.478Z,1.87
2017-08-28T13:19:54.988Z,1.90
2017-08-28T13:22:22.500Z,2.40
2017-08-28T13:24:50.044Z,1.90
2017-08-28T13:27:17.545Z,1.63
2017-08-28T13:29:45.875Z,1.57
2017-08-28T13:32:13.381Z,1.40
2017-08-28T13:34:40.905Z,1.97
2017-08-28T13:37:08.433Z,2.00
2017-08-28T13:39:36.090Z,2.10
2017-08-28T13:42:03.664Z,1.97
2017-08-28T13:44:31.176Z,1.90
2017-08-28T13:46:58.695Z,2.17
2017-08-28T13:49:26.194Z,2.00
2017-08-28T13:51:53.761Z,2.37
2017-08-28T13:54:21.255Z,2.00
2017-08-28T13:56:48.756Z,1.67
2017-08-28T13:59:16.283Z,2.13
2017-08-28T14:01:43.781Z,2.17
2017-08-28T14:04:11.300Z,1.80
2017-08-28T14:06:38.856Z,1.97
2017-08-28T14:09:06.402Z,1.97
2017-08-28T14:11:33.918Z,1.80
2017-08-28T14:14:01.454Z,2.17
2017-08-28T14:16:28.997Z,2.13
2017-08-28T14:18:56.488Z,1.93
2017-08-28T14:21:24.189Z,2.07
2017-08-28T14:23:51.702Z,2.10
2017-08-28T14:26:19.238Z,1.67
2017-08-28T14:28:46.797Z,1.90
2017-08-28T14:31:14.363Z,1.87
2017-08-28T14:33:42.088Z,2.00
2017-08-28T14:36:09.628Z,2.27
2017-08-28T14:38:37.197Z,1.87
2017-08-28T14:41:04.765Z,2.00
2017-08-28T14:43:32.282Z,1.83
2017-08-28T14:45:59.854Z,1.80
2017-08-28T14:48:27.374Z,2.03
2017-08-28T14:50:54.878Z,2.07
2017-08-28T14:53:22.393Z,2.10
2017-08-28T14:55:50.090Z,1.63
2017-08-28T14:58:17.610Z,1.90
2017-08-28T15:00:45.141Z,1.80
2017-08-28T15:03:12.811Z,1.90
2017-08-28T15:05:40.300Z,2.00
2017-08-28T15:08:07.847Z,1.80
2017-08-28T15:10:35.385Z,1.83
2017-08-28T15:13:02.966Z,1.70
2017-08-28T15:15:30.490Z,1.70
2017-08-28T15:17:58.022Z,2.07
2017-08-28T15:20:25.550Z,1.93
2017-08-28T15:22:53.124Z,2.00
2017-08-28T15:25:20.624Z,1.80
2017-08-28T15:27:48.133Z,2.20
2017-08-28T15:30:15.687Z,2.23
2017-08-28T15:32:43.220Z,2.07
2017-08-28T15:35:10.925Z,2.00
2017-08-28T15:37:38.458Z,2.13
2017-08-28T15:40:05.983Z,1.97
2017-08-28T15:42:33.453Z,2.00
2017-08-28T15:45:03.268Z,2.10
2017-08-28T15:47:30.768Z,2.03
2017-08-28T15:49:58.295Z,1.90
2017-08-28T15:52:25.972Z,1.93
2017-08-28T15:54:53.541Z,1.80
2017-08-28T15:57:21.051Z,2.40
2017-08-28T15:59:48.573Z,1.97
2017-08-28T16:02:16.237Z,1.83
2017-08-28T16:04:43.794Z,1.80
2017-08-28T16:07:11.442Z,1.90
2017-08-28T16:09:38.962Z,1.90
2017-08-28T16:12:06.559Z,1.87
2017-08-28T16:14:34.077Z,1.77
2017-08-28T16:17:01.611Z,1.80
2017-08-28T16:19:29.137Z,1.80
2017-08-28T16:21:56.662Z,1.90
2017-08-28T16:24:24.205Z,1.80
2017-08-28T16:26:51.752Z,1.50
2017-08-28T16:29:19.283Z,1.80
2017-08-28T16:31:46.847Z,1.60
2017-08-28T16:34:14.349Z,2.00
2017-08-28T16:36:41.886Z,1.70
2017-08-28T16:39:09.409Z,1.87
2017-08-28T16:41:37.709Z,1.80
2017-08-28T16:44:05.203Z,2.03
2017-08-28T16:46:32.784Z,1.70
2017-08-28T16:49:00.458Z,1.87
2017-08-28T16:51:28.056Z,1.80
2017-08-28T16:53:55.584Z,1.80
2017-08-28T16:56:23.243Z,1.80
2017-08-28T16:58:50.786Z,1.70
2017-08-28T17:01:18.509Z,1.97
2017-08-28T17:03:45.974Z,1.90
2017-08-28T17:06:13.514Z,1.70
2017-08-28T17:08:41.057Z,2.20
2017-08-28T17:11:08.568Z,1.80
2017-08-28T17:13:36.249Z,1.67
2017-08-28T17:16:03.771Z,1.63
2017-08-28T17:18:31.291Z,1.77
2017-08-28T17:20:58.822Z,1.57
2017-08-28T17:23:26.380Z,1.50
2017-08-28T17:25:53.916Z,1.63
2017-08-28T17:28:21.409Z,1.70
2017-08-28T17:30:48.934Z,1.93
2017-08-28T17:33:16.450Z,2.00
2017-08-28T17:35:43.989Z,1.87
2017-08-28T17:38:11.507Z,1.77
2017-08-28T17:40:39.042Z,1.90
2017-08-28T17:43:06.584Z,1.83
2017-08-28T17:45:34.074Z,1.80
2017-08-28T17:48:01.609Z,1.80
2017-08-28T17:50:29.269Z,1.83
2017-08-28T17:52:56.767Z,1.63
2017-08-28T17:55:24.339Z,1.80
2017-08-28T17:57:51.837Z,2.40
2017-08-28T18:00:19.409Z,1.80
2017-08-28T18:02:47.001Z,1.80
2017-08-28T18:05:14.548Z,1.70
2017-08-28T18:07:42.234Z,1.60
2017-08-28T18:10:09.777Z,1.53
2017-08-28T18:12:37.280Z,2.20
2017-08-28T18:15:04.761Z,1.70
2017-08-28T18:17:32.272Z,1.60
2017-08-28T18:19:59.822Z,1.77
2017-08-28T18:22:27.403Z,1.80
2017-08-28T18:24:54.930Z,2.00
2017-08-28T18:27:22.458Z,1.80
2017-08-28T18:29:50.004Z,1.83
2017-08-28T18:32:17.558Z,1.83
2017-08-28T18:34:45.107Z,1.70
2017-08-28T18:37:12.652Z,1.40
2017-08-28T18:39:40.223Z,1.60
2017-08-28T18:42:07.722Z,1.50
2017-08-28T18:44:35.336Z,1.77
2017-08-28T18:47:07.672Z,1.70
2017-08-28T18:49:35.326Z,1.47
2017-08-28T18:52:02.841Z,1.67
2017-08-28T18:54:30.480Z,1.70
2017-08-28T18:56:58.004Z,1.33
2017-08-28T18:59:25.691Z,1.60
2017-08-28T19:01:54.019Z,1.90
2017-08-28T19:04:21.644Z,1.70
2017-08-28T19:06:49.188Z,1.90
2017-08-28T19:09:16.754Z,1.73
2017-08-28T19:11:44.285Z,1.80
2017-08-28T19:14:11.807Z,1.50
2017-08-28T19:16:39.332Z,1.73
2017-08-28T19:19:06.891Z,1.77
2017-08-28T19:21:34.444Z,1.50
2017-08-28T19:24:01.967Z,1.67
2017-08-28T19:26:29.568Z,1.50
2017-08-28T19:28:57.102Z,1.53
2017-08-28T19:31:24.667Z,1.57
2017-08-28T19:36:50.147Z,2.00
2017-08-28T19:39:17.740Z,1.60
2017-08-28T19:41:45.256Z,1.53
2017-08-28T19:44:12.773Z,1.70
2017-08-28T19:46:40.287Z,1.40
2017-08-28T19:49:07.881Z,1.50
2017-08-28T19:51:35.474Z,1.57
2017-08-28T19:54:02.972Z,1.60
2017-08-28T19:56:30.505Z,1.50
2017-08-28T19:58:57.991Z,1.43
2017-08-28T20:01:25.535Z,1.50
2017-08-28T20:03:53.047Z,1.47
2017-08-28T20:06:20.602Z,1.70
2017-08-28T20:08:48.362Z,1.40
2017-08-28T20:11:15.893Z,1.60
2017-08-28T20:13:43.449Z,1.37
2017-08-28T20:16:10.958Z,1.60
2017-08-28T20:18:38.473Z,1.47
2017-08-28T20:21:05.983Z,1.60
2017-08-28T20:23:33.562Z,1.37
2017-08-28T20:26:01.064Z,1.80
2017-08-28T20:28:28.569Z,1.63
2017-08-28T20:30:56.120Z,1.50
2017-08-28T20:33:23.714Z,1.30
2017-08-28T20:35:51.229Z,1.57
2017-08-28T20:38:18.780Z,1.60
2017-08-28T20:40:46.333Z,1.40
2017-08-28T20:43:13.871Z,1.33
2017-08-28T20:45:41.377Z,1.60
2017-08-28T20:48:08.927Z,1.50
2017-08-28T20:50:36.437Z,1.37
2017-08-28T20:53:03.985Z,1.40
2017-08-28T20:55:31.486Z,1.40
2017-08-28T20:57:59.051Z,1.70
2017-08-28T21:00:26.579Z,1.53
2017-08-28T21:02:54.098Z,1.40
2017-08-28T21:05:21.799Z,1.50
2017-08-28T21:07:49.296Z,1.70
2017-08-28T21:10:16.847Z,1.90
2017-08-28T21:12:44.366Z,1.40
2017-08-28T21:15:11.890Z,1.43
2017-08-28T21:17:39.434Z,1.73
2017-08-28T21:20:07.013Z,2.17
2017-08-28T21:22:34.577Z,1.40
2017-08-28T21:25:02.055Z,1.77
2017-08-28T21:27:29.563Z,1.80
2017-08-28T21:29:57.065Z,1.53
2017-08-28T21:32:24.583Z,1.50
2017-08-28T21:34:52.144Z,1.50
2017-08-28T21:37:19.672Z,1.60
2017-08-28T21:39:47.347Z,1.20
2017-08-28T21:42:14.863Z,1.40
2017-08-28T21:44:42.481Z,1.60
2017-08-28T21:47:10.011Z,1.57
2017-08-28T21:49:38.361Z,1.40
2017-08-28T21:52:05.878Z,1.40
2017-08-28T21:54:33.392Z,1.50
2017-08-28T21:57:00.957Z,1.50
2017-08-28T21:59:29.237Z,1.80
2017-08-28T22:01:56.808Z,1.47
2017-08-28T22:04:24.305Z,1.23
2017-08-28T22:06:51.848Z,1.20
2017-08-28T22:09:19.392Z,1.60
2017-08-28T22:11:46.893Z,1.50
2017-08-28T22:14:14.541Z,1.40
2017-08-28T22:16:42.119Z,1.73
2017-08-28T22:19:09.631Z,1.40
2017-08-28T22:21:37.714Z,1.50
2017-08-28T22:24:05.226Z,1.20
2017-08-28T22:26:32.779Z,1.40
2017-08-28T22:29:00.323Z,1.53
2017-08-28T22:31:27.840Z,1.70
2017-08-28T22:33:55.360Z,1.40
2017-08-28T22:36:23.009Z,1.37
2017-08-28T22:38:50.554Z,1.23
2017-08-28T22:41:18.091Z,1.47
2017-08-28T22:43:45.639Z,1.40
2017-08-28T22:46:13.142Z,1.40
2017-08-28T22:48:40.667Z,1.13
2017-08-28T22:51:08.198Z,1.63
2017-08-28T22:53:35.768Z,1.20
2017-08-28T22:56:04.031Z,1.00
2017-08-28T22:58:31.569Z,1.30
2017-08-28T23:00:59.090Z,1.20
2017-08-28T23:03:26.597Z,1.10
2017-08-28T23:05:54.119Z,1.20
2017-08-28T23:08:21.635Z,1.17
2017-08-28T23:10:49.325Z,1.47
2017-08-28T23:13:16.904Z,1.00
2017-08-28T23:15:44.427Z,1.20
2017-08-28T23:18:12.102Z,1.30
2017-08-28T23:20:39.609Z,1.30
2017-08-28T23:23:07.139Z,1.30
2017-08-28T23:25:34.656Z,1.50
2017-08-28T23:28:02.192Z,1.20
2017-08-28T23:30:29.685Z,1.20
2017-08-28T23:32:57.244Z,1.03
2017-08-28T23:35:24.729Z,1.20
2017-08-28T23:37:52.263Z,1.20
2017-08-28T23:40:19.770Z,1.03
2017-08-28T23:42:47.273Z,1.50
2017-08-28T23:45:14.818Z,1.20
2017-08-28T23:47:42.555Z,1.27
2017-08-28T23:50:10.078Z,1.17
2017-08-28T23:52:37.587Z,1.17
2017-08-28T23:55:05.082Z,0.90
2017-08-28T23:57:32.639Z,1.10
